Aviation Digital Data Service (ADDS)

Output produced by METARs form (2103 UTC 23 April 2018)
found at http://aviationweather.gov/adds/metars/
 
KRDU 231735Z 2318/2418 10012G22KT 6SM -SHRA OVC050 
     FM232100 10010G20KT P6SM OVC030 
     TEMPO 2321/2324 2SM SHRA OVC007 
     FM240300 08012G22KT 3SM SHRA OVC015 
     FM240500 07012G22KT 3SM SHRA OVC008 
     TEMPO 2405/2409 1 1/2SM SHRA BR OVC003 
     FM241200 06015G25KT 3SM SHRA BR OVC003 WS020/11035KT 
     FM241700 07009KT 5SM -SHRA OVC010 WS020/14035KT